DTKA

Tabarka 7 Novembre Airport

Tabarka, Tunisia
METAR DTKA 261300Z 08010KT 040V120 9999 FEW026 35/13 Q1013 NOSIG
Observed Flight Rules
May-26 @ 13:00 UTC (55 minutes ago) Visual Flight Rules
Wind Visibility Clouds
80° at 10 knots 10,000+ meters
  • Few at 2,600' AGL
Temperatures Readings
Current 35°C / 95°F
Dewpoint 13°C / 55°F
Humidity 26%
Altimeter 29.91" Hg
Pressure 1013 hPa
Elevation 21
METAR DTKA 261300Z 08010KT 040V120 9999 FEW026 35/13 Q1013 NOSIG
Observed Flight Rules
May-26 @ 13:00 UTC
(55 minutes ago)
VFR
Wind Visibility
80° at 10 knots 10,000+ meters
Clouds
  • Few at 2,600' AGL
Temperature Dewpoint
35°C / 95°F 13°C / 55°F
Humidity Altimeter Pressure
26% 29.91" Hg 1013 hPa